createdAt,value
2018-09-02T00:00:08.933Z,8.00
2018-09-02T00:01:08.901Z,10.90
2018-09-02T00:02:08.890Z,8.60
2018-09-02T00:03:08.901Z,7.20
2018-09-02T00:04:08.866Z,7.50
2018-09-02T00:05:08.854Z,7.70
2018-09-02T00:06:08.844Z,8.10
2018-09-02T00:07:08.832Z,8.90
2018-09-02T00:08:08.842Z,7.30
2018-09-02T00:09:08.810Z,6.80
2018-09-02T00:10:08.798Z,8.80
2018-09-02T00:11:08.828Z,7.70
2018-09-02T00:12:08.776Z,6.50
2018-09-02T00:13:08.764Z,7.50
2018-09-02T00:14:08.753Z,6.80
2018-09-02T00:15:08.742Z,6.40
2018-09-02T00:16:08.751Z,9.60
2018-09-02T00:17:08.721Z,9.50
2018-09-02T00:18:08.708Z,7.80
2018-09-02T00:19:08.717Z,7.10
2018-09-02T00:20:08.686Z,7.50
2018-09-02T00:21:08.676Z,6.10
2018-09-02T00:22:08.663Z,9.60
2018-09-02T00:23:08.691Z,7.90
2018-09-02T00:24:08.641Z,6.60
2018-09-02T00:25:08.629Z,6.60
2018-09-02T00:26:08.619Z,4.80
2018-09-02T00:27:08.607Z,7.60
2018-09-02T00:28:08.617Z,6.80
2018-09-02T00:29:08.589Z,6.70
2018-09-02T00:30:08.573Z,7.40
2018-09-02T00:31:08.583Z,6.30
2018-09-02T00:32:08.552Z,6.10
2018-09-02T00:33:08.563Z,8.70
2018-09-02T00:34:08.549Z,8.60
2018-09-02T00:35:08.524Z,6.30
2018-09-02T00:36:08.505Z,7.10
2018-09-02T00:37:08.495Z,8.50
2018-09-02T00:38:08.505Z,5.70
2018-09-02T00:39:08.472Z,8.80
2018-09-02T00:40:08.461Z,6.80
2018-09-02T00:41:08.449Z,7.50
2018-09-02T00:42:08.459Z,5.40
2018-09-02T00:43:08.426Z,9.30
2018-09-02T00:44:08.416Z,6.90
2018-09-02T00:45:08.410Z,7.20
2018-09-02T00:46:08.392Z,6.20
2018-09-02T00:47:08.411Z,7.80
2018-09-02T00:48:08.370Z,7.10
2018-09-02T00:49:08.358Z,7.40
2018-09-02T00:50:08.355Z,5.60
2018-09-02T00:51:08.337Z,6.60
2018-09-02T00:52:08.345Z,6.70
2018-09-02T00:53:08.313Z,6.00
2018-09-02T00:54:08.303Z,8.90
2018-09-02T00:55:08.291Z,7.40
2018-09-02T00:56:08.279Z,9.70
2018-09-02T00:57:08.294Z,6.50
2018-09-02T00:58:08.256Z,7.70
2018-09-02T00:59:08.267Z,8.90
2018-09-02T01:00:08.234Z,6.80
2018-09-02T01:01:08.222Z,6.60
2018-09-02T01:02:08.232Z,8.00
2018-09-02T01:03:08.201Z,7.90
2018-09-02T01:04:08.188Z,6.00
2018-09-02T01:05:08.177Z,7.70
2018-09-02T01:06:08.166Z,8.10
2018-09-02T01:07:08.178Z,6.50
2018-09-02T01:08:08.143Z,8.10
2018-09-02T01:09:08.152Z,6.80
2018-09-02T01:10:08.124Z,7.80
2018-09-02T01:11:08.109Z,7.10
2018-09-02T01:12:08.098Z,6.80
2018-09-02T01:13:08.087Z,6.90
2018-09-02T01:14:08.091Z,8.10
2018-09-02T01:15:08.065Z,9.40
2018-09-02T01:16:08.054Z,7.80
2018-09-02T01:17:08.041Z,9.00
2018-09-02T01:18:08.051Z,6.40
2018-09-02T01:19:08.040Z,6.90
2018-09-02T01:20:08.007Z,7.70
2018-09-02T01:21:07.997Z,7.80
2018-09-02T01:22:07.984Z,8.00
2018-09-02T01:23:08.024Z,6.60
2018-09-02T01:24:07.993Z,7.40
2018-09-02T01:25:07.955Z,6.50
2018-09-02T01:26:07.939Z,7.60
2018-09-02T01:27:07.928Z,8.00
2018-09-02T01:28:07.917Z,7.20
2018-09-02T01:29:07.930Z,6.00
2018-09-02T01:30:07.894Z,6.10
2018-09-02T01:31:07.883Z,6.20
2018-09-02T01:32:07.874Z,6.20
2018-09-02T01:33:07.882Z,5.40
2018-09-02T01:34:07.863Z,7.50
2018-09-02T01:35:07.858Z,6.60
2018-09-02T01:36:07.826Z,6.30
2018-09-02T01:37:07.815Z,7.40
2018-09-02T01:38:07.804Z,6.90
2018-09-02T01:39:07.792Z,5.70
2018-09-02T01:40:07.810Z,6.00
2018-09-02T01:41:07.770Z,8.00
2018-09-02T01:42:07.758Z,6.90
2018-09-02T01:43:07.805Z,6.60
2018-09-02T01:44:07.736Z,8.30
2018-09-02T01:45:07.745Z,5.30
2018-09-02T01:46:07.712Z,5.90
2018-09-02T01:47:07.702Z,7.70
2018-09-02T01:48:07.712Z,6.30
2018-09-02T01:49:07.680Z,5.40
2018-09-02T01:50:07.666Z,6.20
2018-09-02T01:51:07.657Z,5.40
2018-09-02T01:52:07.665Z,6.00
2018-09-02T01:53:07.654Z,7.40
2018-09-02T01:54:07.622Z,5.40
2018-09-02T01:55:07.610Z,4.10
2018-09-02T01:56:07.599Z,5.90
2018-09-02T01:57:07.612Z,5.10
2018-09-02T01:58:07.576Z,5.40
2018-09-02T01:59:07.586Z,5.40
2018-09-02T02:00:07.555Z,4.30
2018-09-02T02:01:07.544Z,5.30
2018-09-02T02:02:07.532Z,7.70
2018-09-02T02:03:07.521Z,4.20
2018-09-02T02:04:07.539Z,4.30
2018-09-02T02:05:07.498Z,4.70
2018-09-02T02:06:07.486Z,4.90
2018-09-02T02:07:07.475Z,4.70
2018-09-02T02:08:07.464Z,4.20
2018-09-02T02:09:07.473Z,5.00
2018-09-02T02:10:07.441Z,5.50
2018-09-02T02:11:07.430Z,3.50
2018-09-02T02:12:07.444Z,4.00
2018-09-02T02:13:07.428Z,4.70
2018-09-02T02:14:07.417Z,4.10
2018-09-02T02:15:07.385Z,5.20
2018-09-02T02:16:07.385Z,4.70
2018-09-02T02:17:07.365Z,5.70
2018-09-02T02:18:07.350Z,4.40
2018-09-02T02:19:07.363Z,4.60
2018-09-02T02:20:07.331Z,4.80
2018-09-02T02:21:07.337Z,5.10
2018-09-02T02:22:07.305Z,4.80
2018-09-02T02:23:07.316Z,4.70
2018-09-02T02:24:07.283Z,3.50
2018-09-02T02:25:07.274Z,4.60
2018-09-02T02:26:07.260Z,4.10
2018-09-02T02:27:07.251Z,4.50
2018-09-02T02:28:07.259Z,4.00
2018-09-02T02:29:07.226Z,4.70
2018-09-02T02:30:07.218Z,5.80
2018-09-02T02:31:07.207Z,3.60
2018-09-02T02:32:07.199Z,4.50
2018-09-02T02:33:07.203Z,3.20
2018-09-02T02:34:07.169Z,5.70
2018-09-02T02:35:07.161Z,4.90
2018-09-02T02:36:07.147Z,3.90
2018-09-02T02:37:07.135Z,3.30
2018-09-02T02:38:07.145Z,4.70
2018-09-02T02:39:07.113Z,3.70
2018-09-02T02:40:07.122Z,5.10
2018-09-02T02:41:07.091Z,4.00
2018-09-02T02:42:07.080Z,5.00
2018-09-02T02:43:07.092Z,5.90
2018-09-02T02:44:07.056Z,5.10
2018-09-02T02:45:07.074Z,6.00
2018-09-02T02:46:07.033Z,5.30
2018-09-02T02:47:07.021Z,5.30
2018-09-02T02:48:07.010Z,3.80
2018-09-02T02:49:07.000Z,6.20
2018-09-02T02:50:07.011Z,5.60
2018-09-02T02:51:06.976Z,4.90
2018-09-02T02:52:06.965Z,5.00
2018-09-02T02:53:06.985Z,6.00
2018-09-02T02:54:06.945Z,4.90
2018-09-02T02:55:06.932Z,4.00
2018-09-02T02:56:06.919Z,4.60
2018-09-02T02:57:06.909Z,4.00
2018-09-02T02:58:06.919Z,4.90
2018-09-02T02:59:06.886Z,5.00
2018-09-02T03:00:06.875Z,4.50
2018-09-02T03:01:06.885Z,5.40
2018-09-02T03:02:06.852Z,5.10
2018-09-02T03:03:06.840Z,4.10
2018-09-02T03:04:06.829Z,4.10
2018-09-02T03:05:06.840Z,4.30
2018-09-02T03:06:06.806Z,4.50
2018-09-02T03:07:06.796Z,4.30
2018-09-02T03:08:06.785Z,6.10
2018-09-02T03:09:06.773Z,5.50
2018-09-02T03:10:06.785Z,6.30
2018-09-02T03:11:06.817Z,5.60
2018-09-02T03:12:06.742Z,4.80
2018-09-02T03:13:06.727Z,4.50
2018-09-02T03:14:06.717Z,4.20
2018-09-02T03:15:06.706Z,3.90
2018-09-02T03:16:06.717Z,4.50
2018-09-02T03:17:06.705Z,5.40
2018-09-02T03:18:06.672Z,4.60
2018-09-02T03:19:06.661Z,3.80
2018-09-02T03:20:06.651Z,4.90
2018-09-02T03:21:06.638Z,5.80
2018-09-02T03:22:06.651Z,5.20
2018-09-02T03:23:06.617Z,4.80
2018-09-02T03:24:06.605Z,4.20
2018-09-02T03:25:06.610Z,4.30
2018-09-02T03:26:06.606Z,5.80
2018-09-02T03:27:06.591Z,5.20
2018-09-02T03:28:06.560Z,4.00
2018-09-02T03:29:06.547Z,4.00
2018-09-02T03:30:06.537Z,6.60
2018-09-02T03:31:06.536Z,5.10
2018-09-02T03:32:06.536Z,5.80
2018-09-02T03:33:06.501Z,5.10
2018-09-02T03:34:06.494Z,4.10
2018-09-02T03:35:06.479Z,4.70
2018-09-02T03:36:06.468Z,5.20
2018-09-02T03:37:06.488Z,4.60
2018-09-02T03:38:06.446Z,4.30
2018-09-02T03:39:06.435Z,4.50
2018-09-02T03:40:06.422Z,4.80
2018-09-02T03:41:06.415Z,5.90
2018-09-02T03:42:06.420Z,5.20
2018-09-02T03:43:06.388Z,3.70
2018-09-02T03:44:06.398Z,5.40
2018-09-02T03:45:06.367Z,6.10
2018-09-02T03:46:06.354Z,3.70
2018-09-02T03:47:06.343Z,3.80
2018-09-02T03:48:06.355Z,3.50
2018-09-02T03:49:06.343Z,3.40
2018-09-02T03:50:06.311Z,4.00
2018-09-02T03:51:06.298Z,4.90
2018-09-02T03:52:06.293Z,4.40
2018-09-02T03:53:06.275Z,5.00
2018-09-02T03:54:06.287Z,4.30
2018-09-02T03:55:06.278Z,4.50
2018-09-02T03:56:06.241Z,3.90
2018-09-02T03:57:06.230Z,4.70
2018-09-02T03:58:06.219Z,3.80
2018-09-02T03:59:06.228Z,4.40
2018-09-02T04:00:06.218Z,3.70
2018-09-02T04:01:06.185Z,4.40
2018-09-02T04:02:06.195Z,3.90
2018-09-02T04:03:06.162Z,3.30
2018-09-02T04:04:06.152Z,3.50
2018-09-02T04:05:06.162Z,4.00
2018-09-02T04:06:06.131Z,5.40
2018-09-02T04:07:06.139Z,4.50
2018-09-02T04:08:06.106Z,4.10
2018-09-02T04:09:06.095Z,5.00
2018-09-02T04:10:06.083Z,4.00
2018-09-02T04:11:06.073Z,4.00
2018-09-02T04:12:06.083Z,4.40
2018-09-02T04:13:06.053Z,4.00
2018-09-02T04:14:06.039Z,5.10
2018-09-02T04:15:06.027Z,5.60
2018-09-02T04:16:06.037Z,5.30
2018-09-02T04:17:06.004Z,4.20
2018-09-02T04:18:05.992Z,4.80
2018-09-02T04:19:05.982Z,4.40
2018-09-02T04:20:05.974Z,4.20
2018-09-02T04:21:05.982Z,4.60
2018-09-02T04:22:05.947Z,4.90
2018-09-02T04:23:05.937Z,4.20
2018-09-02T04:24:05.925Z,5.00
2018-09-02T04:25:05.936Z,4.80
2018-09-02T04:26:05.904Z,4.40
2018-09-02T04:27:05.892Z,5.00
2018-09-02T04:28:05.999Z,3.30
2018-09-02T04:29:05.872Z,3.70
2018-09-02T04:30:05.860Z,5.20
2018-09-02T04:31:05.845Z,4.30
2018-09-02T04:32:05.835Z,4.10
2018-09-02T04:33:05.854Z,4.10
2018-09-02T04:34:05.812Z,5.00
2018-09-02T04:35:05.802Z,3.70
2018-09-02T04:36:05.791Z,4.20
2018-09-02T04:37:05.781Z,4.10
2018-09-02T04:38:05.790Z,3.70
2018-09-02T04:39:05.782Z,4.40
2018-09-02T04:40:05.754Z,5.70
2018-09-02T04:41:05.735Z,4.60
2018-09-02T04:42:05.724Z,5.00
2018-09-02T04:43:05.713Z,4.40
2018-09-02T04:44:05.723Z,5.30
2018-09-02T04:45:05.720Z,4.30
2018-09-02T04:46:05.678Z,5.80
2018-09-02T04:47:05.669Z,3.40
2018-09-02T04:48:05.656Z,6.00
2018-09-02T04:49:05.674Z,3.80
2018-09-02T04:50:05.633Z,4.40
2018-09-02T04:51:05.624Z,4.00
2018-09-02T04:52:05.615Z,3.40
2018-09-02T04:53:05.601Z,4.00
2018-09-02T04:54:05.627Z,4.30
2018-09-02T04:55:05.577Z,3.60
2018-09-02T04:56:05.564Z,4.00
2018-09-02T04:57:05.554Z,5.20
2018-09-02T04:58:05.543Z,3.60
2018-09-02T04:59:05.554Z,4.20
2018-09-02T05:00:05.526Z,4.80
2018-09-02T05:01:05.508Z,4.40
2018-09-02T05:02:05.519Z,3.40
2018-09-02T05:03:05.486Z,5.00
2018-09-02T05:04:05.475Z,5.30
2018-09-02T05:05:05.485Z,4.00
2018-09-02T05:06:05.452Z,4.10
2018-09-02T05:07:05.444Z,5.20
2018-09-02T05:08:05.430Z,4.00
2018-09-02T05:09:05.419Z,4.40
2018-09-02T05:10:05.435Z,5.40
2018-09-02T05:11:05.396Z,5.40
2018-09-02T05:12:05.388Z,5.00
2018-09-02T05:13:05.373Z,3.80
2018-09-02T05:14:05.393Z,5.30
2018-09-02T05:15:05.354Z,4.40
2018-09-02T05:16:05.367Z,4.60
2018-09-02T05:17:05.331Z,3.60
2018-09-02T05:18:05.316Z,5.00
2018-09-02T05:19:05.305Z,3.90
2018-09-02T05:20:05.294Z,5.70
2018-09-02T05:21:05.304Z,4.20
2018-09-02T05:22:05.293Z,3.80
2018-09-02T05:23:05.264Z,7.60
2018-09-02T05:24:05.248Z,4.40
2018-09-02T05:25:05.237Z,4.70
2018-09-02T05:26:05.227Z,3.70
2018-09-02T05:27:05.236Z,4.10
2018-09-02T05:28:05.207Z,5.50
2018-09-02T05:29:05.192Z,4.70
2018-09-02T05:30:05.183Z,4.10
2018-09-02T05:31:05.170Z,5.00
2018-09-02T05:32:05.185Z,3.50
2018-09-02T05:33:05.148Z,5.30
2018-09-02T05:34:05.137Z,4.80
2018-09-02T05:35:05.125Z,3.40
2018-09-02T05:36:05.114Z,4.10
2018-09-02T05:37:05.282Z,4.30
2018-09-02T05:38:05.092Z,4.40
2018-09-02T05:39:05.079Z,4.00
2018-09-02T05:40:05.073Z,4.50
2018-09-02T05:41:05.060Z,4.40
2018-09-02T05:42:05.077Z,4.20
2018-09-02T05:43:05.037Z,5.70
2018-09-02T05:44:05.100Z,4.90
2018-09-02T05:45:05.011Z,5.70
2018-09-02T05:46:05.001Z,4.90
2018-09-02T05:47:05.021Z,4.20
2018-09-02T05:48:04.978Z,4.80
2018-09-02T05:49:04.967Z,4.00
2018-09-02T05:50:04.963Z,4.20
2018-09-02T05:51:04.945Z,5.20
2018-09-02T05:52:04.955Z,4.90
2018-09-02T05:53:04.921Z,4.20
2018-09-02T05:54:04.910Z,5.00
2018-09-02T05:55:04.899Z,4.10
2018-09-02T05:56:04.888Z,4.50
2018-09-02T05:57:04.910Z,5.20
2018-09-02T05:58:04.886Z,6.10
2018-09-02T05:59:04.853Z,5.00
2018-09-02T06:00:04.842Z,5.20
2018-09-02T06:01:04.831Z,3.90
2018-09-02T06:02:04.822Z,4.40
2018-09-02T06:03:04.839Z,4.70
2018-09-02T06:04:04.797Z,5.80
2018-09-02T06:05:04.789Z,6.30
2018-09-02T06:06:04.775Z,6.90
2018-09-02T06:07:04.764Z,5.90
2018-09-02T06:08:04.782Z,6.80
2018-09-02T06:09:04.742Z,5.20
2018-09-02T06:10:04.729Z,6.20
2018-09-02T06:11:04.718Z,4.90
2018-09-02T06:12:04.709Z,4.90
2018-09-02T06:13:04.726Z,4.80
2018-09-02T06:14:04.685Z,5.40
2018-09-02T06:15:04.674Z,6.10
2018-09-02T06:16:04.663Z,5.30
2018-09-02T06:17:04.652Z,6.40
2018-09-02T06:18:04.662Z,6.80
2018-09-02T06:19:04.630Z,5.00
2018-09-02T06:20:04.618Z,5.20
2018-09-02T06:21:04.627Z,5.90
2018-09-02T06:22:04.594Z,5.80
2018-09-02T06:23:04.603Z,7.00
2018-09-02T06:24:04.572Z,6.60
2018-09-02T06:25:04.561Z,7.20
2018-09-02T06:26:04.576Z,6.70
2018-09-02T06:27:04.540Z,6.70
2018-09-02T06:28:04.527Z,5.80
2018-09-02T06:29:04.515Z,8.90
2018-09-02T06:30:04.512Z,5.10
2018-09-02T06:31:04.523Z,8.80
2018-09-02T06:32:04.481Z,7.00
2018-09-02T06:33:04.470Z,6.00
2018-09-02T06:34:04.459Z,6.20
2018-09-02T06:35:04.461Z,7.00
2018-09-02T06:36:04.439Z,6.00
2018-09-02T06:37:04.424Z,5.70
2018-09-02T06:38:04.416Z,5.50
2018-09-02T06:39:04.404Z,6.30
2018-09-02T06:40:04.411Z,5.70
2018-09-02T06:41:04.381Z,5.70
2018-09-02T06:42:04.368Z,6.10
2018-09-02T06:43:04.377Z,6.10
2018-09-02T06:44:04.345Z,6.60
2018-09-02T06:45:04.334Z,9.10
2018-09-02T06:46:04.361Z,5.10
2018-09-02T06:47:04.311Z,7.10
2018-09-02T06:48:04.301Z,5.60
2018-09-02T06:49:04.298Z,5.90
2018-09-02T06:50:04.280Z,5.30
2018-09-02T06:51:04.287Z,6.20
2018-09-02T06:52:04.284Z,5.40
2018-09-02T06:53:04.245Z,5.90
2018-09-02T06:54:04.232Z,5.20
2018-09-02T06:55:04.223Z,5.90
2018-09-02T06:56:04.210Z,4.60
2018-09-02T06:57:04.229Z,7.00
2018-09-02T06:58:04.190Z,5.50
2018-09-02T06:59:04.177Z,5.10
2018-09-02T07:00:04.164Z,4.50
2018-09-02T07:01:04.153Z,5.90
2018-09-02T07:02:04.166Z,5.90
2018-09-02T07:03:04.132Z,6.10
2018-09-02T07:04:04.140Z,5.70
2018-09-02T07:05:04.109Z,5.70
2018-09-02T07:06:04.096Z,5.10
2018-09-02T07:07:04.087Z,6.10
2018-09-02T07:08:04.073Z,5.50
2018-09-02T07:09:04.085Z,5.20
2018-09-02T07:10:04.052Z,6.10
2018-09-02T07:11:04.040Z,5.40
2018-09-02T07:12:04.028Z,5.30
2018-09-02T07:13:04.017Z,5.50
2018-09-02T07:14:04.022Z,6.40
2018-09-02T07:15:03.996Z,4.80
2018-09-02T07:16:03.987Z,4.90
2018-09-02T07:17:03.974Z,4.90
2018-09-02T07:18:03.985Z,5.40
2018-09-02T07:19:03.950Z,6.10
2018-09-02T07:20:04.037Z,6.20
2018-09-02T07:21:03.949Z,4.90
2018-09-02T07:22:03.916Z,5.30
2018-09-02T07:23:03.904Z,6.80
2018-09-02T07:24:03.894Z,4.60
2018-09-02T07:25:03.904Z,6.20
2018-09-02T07:26:03.870Z,5.10
2018-09-02T07:27:03.860Z,5.10
2018-09-02T07:28:03.848Z,5.90
2018-09-02T07:29:03.850Z,5.70
2018-09-02T07:30:03.846Z,3.70
2018-09-02T07:31:03.817Z,4.90
2018-09-02T07:32:03.812Z,5.70
2018-09-02T07:33:03.793Z,5.10
2018-09-02T07:34:03.780Z,4.70
2018-09-02T07:35:03.798Z,5.40
2018-09-02T07:36:03.758Z,5.80
2018-09-02T07:37:03.746Z,4.60
2018-09-02T07:38:03.736Z,5.40
2018-09-02T07:39:03.725Z,5.30
2018-09-02T07:40:03.743Z,4.80
2018-09-02T07:41:03.701Z,4.00
2018-09-02T07:42:03.691Z,4.00
2018-09-02T07:43:03.688Z,4.10
2018-09-02T07:44:03.704Z,4.20
2018-09-02T07:45:03.678Z,5.20
2018-09-02T07:46:03.645Z,4.10
2018-09-02T07:47:03.639Z,5.30
2018-09-02T07:48:03.646Z,5.80
2018-09-02T07:49:03.613Z,5.10
2018-09-02T07:50:03.600Z,4.70
2018-09-02T07:51:03.589Z,4.70
2018-09-02T07:52:03.578Z,6.30
2018-09-02T07:53:03.589Z,4.60
2018-09-02T07:54:03.556Z,4.80
2018-09-02T07:55:03.545Z,5.20
2018-09-02T07:56:03.532Z,7.50
2018-09-02T07:57:03.543Z,5.50
2018-09-02T07:58:03.510Z,4.20
2018-09-02T07:59:03.500Z,5.70
2018-09-02T08:00:03.488Z,4.40
2018-09-02T08:01:03.478Z,4.90
2018-09-02T08:02:03.487Z,4.30
2018-09-02T08:03:03.455Z,5.40
2018-09-02T08:04:03.449Z,4.10
2018-09-02T08:05:03.433Z,3.70
2018-09-02T08:06:03.428Z,5.00
2018-09-02T08:07:03.436Z,5.00
2018-09-02T08:08:03.420Z,4.90
2018-09-02T08:09:03.400Z,3.90
2018-09-02T08:10:03.378Z,4.60
2018-09-02T08:11:03.364Z,4.00
2018-09-02T08:12:03.354Z,4.40
2018-09-02T08:13:03.365Z,4.60
2018-09-02T08:14:03.330Z,4.40
2018-09-02T08:15:03.320Z,3.90
2018-09-02T08:16:03.308Z,4.30
2018-09-02T08:17:03.298Z,5.00
2018-09-02T08:18:03.306Z,4.10
2018-09-02T08:19:03.273Z,3.80
2018-09-02T08:20:03.263Z,4.50
2018-09-02T08:21:03.256Z,4.10
2018-09-02T08:22:03.262Z,4.60
2018-09-02T08:23:03.254Z,3.80
2018-09-02T08:24:03.240Z,3.90
2018-09-02T08:25:03.232Z,3.90
2018-09-02T08:26:03.196Z,4.40
2018-09-02T08:27:03.218Z,3.00
2018-09-02T08:28:03.174Z,4.40
2018-09-02T08:29:03.163Z,6.00
2018-09-02T08:30:03.155Z,3.90
2018-09-02T08:31:03.141Z,4.10
2018-09-02T08:32:03.156Z,3.30
2018-09-02T08:33:03.161Z,4.40
2018-09-02T08:34:03.109Z,3.80
2018-09-02T08:35:03.136Z,4.10
2018-09-02T08:36:03.084Z,3.70
2018-09-02T08:37:03.074Z,5.00
2018-09-02T08:38:03.061Z,5.60
2018-09-02T08:39:03.069Z,3.80
2018-09-02T08:40:03.063Z,5.10
2018-09-02T08:41:03.061Z,4.70
2018-09-02T08:42:03.019Z,3.10
2018-09-02T08:43:03.005Z,3.70
2018-09-02T08:44:03.050Z,4.90
2018-09-02T08:45:02.984Z,3.80
2018-09-02T08:46:02.993Z,5.30
2018-09-02T08:47:02.961Z,4.20
2018-09-02T08:48:03.091Z,3.20
2018-09-02T08:49:02.939Z,3.60
2018-09-02T08:50:02.927Z,3.20
2018-09-02T08:51:02.948Z,4.20
2018-09-02T08:52:02.904Z,3.30
2018-09-02T08:53:02.893Z,3.30
2018-09-02T08:54:02.881Z,3.90
2018-09-02T08:55:02.870Z,3.50
2018-09-02T08:56:02.968Z,3.50
2018-09-02T08:57:02.848Z,4.30
2018-09-02T08:58:02.838Z,3.50
2018-09-02T08:59:02.826Z,4.20
2018-09-02T09:00:02.839Z,3.40
2018-09-02T09:01:02.805Z,3.40
2018-09-02T09:02:02.813Z,5.10
2018-09-02T09:03:02.781Z,3.00
2018-09-02T09:04:02.770Z,3.70
2018-09-02T09:05:02.758Z,4.30
2018-09-02T09:06:02.769Z,3.30
2018-09-02T09:07:02.735Z,4.50
2018-09-02T09:08:02.841Z,3.60
2018-09-02T09:09:03.095Z,3.50
2018-09-02T09:10:02.702Z,3.30
2018-09-02T09:11:02.732Z,3.80
2018-09-02T09:12:02.681Z,3.00
2018-09-02T09:13:02.668Z,3.10
2018-09-02T09:14:02.677Z,3.70
2018-09-02T09:15:02.648Z,4.20
2018-09-02T09:16:02.656Z,4.80
2018-09-02T09:17:02.707Z,3.70
2018-09-02T09:18:02.634Z,3.30
2018-09-02T09:19:02.626Z,3.40
2018-09-02T09:20:02.597Z,3.00
2018-09-02T09:21:02.583Z,2.90
2018-09-02T09:22:02.614Z,4.10
2018-09-02T09:23:02.577Z,3.80
2018-09-02T09:24:02.601Z,3.40
2018-09-02T09:25:02.549Z,5.30
2018-09-02T09:26:02.546Z,2.80
2018-09-02T09:27:02.511Z,2.80
2018-09-02T09:28:02.521Z,2.80
2018-09-02T09:29:02.495Z,4.30
2018-09-02T09:30:02.481Z,4.70
2018-09-02T09:31:02.468Z,4.10
2018-09-02T09:32:02.456Z,3.40
2018-09-02T09:33:02.469Z,3.50
2018-09-02T09:34:02.432Z,2.70
2018-09-02T09:35:02.420Z,2.90
2018-09-02T09:36:02.410Z,2.70
2018-09-02T09:37:02.397Z,3.70
2018-09-02T09:38:02.408Z,3.60
2018-09-02T09:39:02.375Z,2.70
2018-09-02T09:40:02.364Z,4.70
2018-09-02T09:41:02.357Z,4.80
2018-09-02T09:42:02.366Z,3.20
2018-09-02T09:43:02.330Z,3.30
2018-09-02T09:44:02.350Z,3.30
2018-09-02T09:45:02.308Z,2.60
2018-09-02T09:46:02.310Z,3.20
2018-09-02T09:47:02.287Z,2.90
2018-09-02T09:48:02.279Z,2.80
2018-09-02T09:49:02.286Z,3.40
2018-09-02T09:50:02.252Z,4.60
2018-09-02T09:51:02.243Z,4.90
2018-09-02T09:52:02.236Z,3.00
2018-09-02T09:53:02.241Z,2.90
2018-09-02T09:54:02.209Z,4.50
2018-09-02T09:55:02.198Z,3.10
2018-09-02T09:56:02.188Z,3.80
2018-09-02T09:57:02.209Z,2.70
2018-09-02T09:58:02.189Z,3.20
2018-09-02T09:59:02.180Z,3.00
2018-09-02T10:00:02.164Z,3.80
2018-09-02T10:01:02.133Z,2.40
2018-09-02T10:02:02.122Z,3.20
2018-09-02T10:03:02.125Z,3.70
2018-09-02T10:04:02.100Z,2.70
2018-09-02T10:05:02.110Z,3.60
2018-09-02T10:06:02.105Z,3.10
2018-09-02T10:07:02.087Z,2.80
2018-09-02T10:08:02.056Z,3.10
2018-09-02T10:09:02.066Z,3.40
2018-09-02T10:10:02.043Z,3.50
2018-09-02T10:11:02.024Z,2.60
2018-09-02T10:12:02.014Z,3.40
2018-09-02T10:13:02.004Z,2.80
2018-09-02T10:14:02.008Z,2.90
2018-09-02T10:15:02.002Z,2.50
2018-09-02T10:16:01.992Z,4.20
2018-09-02T10:17:01.962Z,3.00
2018-09-02T10:18:02.024Z,3.30
2018-09-02T10:19:01.936Z,2.80
2018-09-02T10:20:01.928Z,3.30
2018-09-02T10:21:01.915Z,3.50
2018-09-02T10:22:01.905Z,2.20
2018-09-02T10:23:01.915Z,2.80
2018-09-02T10:24:01.882Z,3.30
2018-09-02T10:25:01.903Z,4.90
2018-09-02T10:26:01.862Z,3.50
2018-09-02T10:27:01.857Z,3.00
2018-09-02T10:28:01.839Z,2.30
2018-09-02T10:29:01.849Z,2.90
2018-09-02T10:30:01.823Z,2.70
2018-09-02T10:31:01.805Z,2.70
2018-09-02T10:32:01.794Z,2.90
2018-09-02T10:33:01.839Z,3.30
2018-09-02T10:34:01.793Z,3.20
2018-09-02T10:35:01.788Z,3.10
2018-09-02T10:36:01.756Z,2.90
2018-09-02T10:37:01.741Z,2.40
2018-09-02T10:38:01.727Z,3.70
2018-09-02T10:39:01.715Z,2.40
2018-09-02T10:40:01.725Z,2.50
2018-09-02T10:41:01.856Z,2.90
2018-09-02T10:42:01.680Z,3.30
2018-09-02T10:43:01.671Z,2.20
2018-09-02T10:44:01.661Z,2.40
2018-09-02T10:45:01.671Z,2.40
2018-09-02T10:46:01.683Z,4.00
2018-09-02T10:47:01.626Z,3.00
2018-09-02T10:48:01.638Z,2.50
2018-09-02T10:49:01.605Z,2.60
2018-09-02T10:50:01.596Z,3.10
2018-09-02T10:51:01.604Z,2.70
2018-09-02T10:52:01.571Z,3.00
2018-09-02T10:53:01.561Z,2.70
2018-09-02T10:54:01.552Z,2.50
2018-09-02T10:55:02.027Z,2.50
2018-09-02T10:56:01.536Z,3.40
2018-09-02T10:57:01.515Z,3.20
2018-09-02T10:58:01.504Z,2.80
2018-09-02T10:59:01.494Z,3.00
2018-09-02T11:00:01.509Z,3.90
2018-09-02T11:01:01.483Z,3.30
2018-09-02T11:02:01.462Z,2.60
2018-09-02T11:03:01.455Z,2.80
2018-09-02T11:04:01.460Z,2.90
2018-09-02T11:05:01.451Z,2.70
2018-09-02T11:06:01.435Z,3.30
2018-09-02T11:07:01.403Z,4.10
2018-09-02T11:08:01.414Z,3.00
2018-09-02T11:09:01.380Z,3.40
2018-09-02T11:10:01.370Z,3.20
2018-09-02T11:11:01.379Z,2.50
2018-09-02T11:12:01.351Z,2.40
2018-09-02T11:13:01.368Z,3.80
2018-09-02T11:14:01.420Z,3.60
2018-09-02T11:15:01.335Z,2.90
2018-09-02T11:16:01.304Z,2.50
2018-09-02T11:17:01.312Z,3.10
2018-09-02T11:18:01.280Z,3.00
2018-09-02T11:19:01.274Z,2.80
2018-09-02T11:20:01.279Z,3.60
2018-09-02T11:21:01.248Z,3.80
2018-09-02T11:22:01.258Z,4.20
2018-09-02T11:23:01.245Z,3.90
2018-09-02T11:24:01.211Z,2.60
2018-09-02T11:25:01.226Z,3.30
2018-09-02T11:26:01.191Z,3.70
2018-09-02T11:27:01.179Z,3.30
2018-09-02T11:28:01.190Z,2.60
2018-09-02T11:29:01.157Z,2.70
2018-09-02T11:30:01.151Z,2.60
2018-09-02T11:31:01.138Z,2.70
2018-09-02T11:32:01.123Z,2.70
2018-09-02T11:33:01.134Z,3.00
2018-09-02T11:34:01.112Z,2.90
2018-09-02T11:35:01.109Z,3.20
2018-09-02T11:36:01.078Z,3.30
2018-09-02T11:37:01.069Z,2.60
2018-09-02T11:38:01.055Z,3.30
2018-09-02T11:39:01.084Z,4.70
2018-09-02T11:40:01.035Z,3.20
2018-09-02T11:41:01.022Z,3.10
2018-09-02T11:42:01.010Z,3.80
2018-09-02T11:43:01.023Z,2.50
2018-09-02T11:44:00.989Z,3.60
2018-09-02T11:45:00.994Z,3.60
2018-09-02T11:46:00.966Z,3.00
2018-09-02T11:47:01.121Z,3.00
2018-09-02T11:48:00.965Z,3.70
2018-09-02T11:49:00.932Z,4.50
2018-09-02T11:50:00.921Z,3.20
2018-09-02T11:51:00.909Z,2.90
2018-09-02T11:52:00.900Z,6.30
2018-09-02T11:53:00.918Z,3.20
2018-09-02T11:54:00.874Z,3.10
2018-09-02T11:55:00.864Z,3.40
2018-09-02T11:56:00.855Z,3.30
2018-09-02T11:57:00.841Z,3.70
2018-09-02T11:58:00.868Z,4.60
2018-09-02T11:59:00.822Z,3.40
2018-09-02T12:00:00.810Z,3.60
2018-09-02T12:01:00.826Z,3.10
2018-09-02T12:02:00.786Z,3.40
2018-09-02T12:03:00.774Z,3.90
2018-09-02T12:04:00.799Z,3.00
2018-09-02T12:05:00.752Z,3.10
2018-09-02T12:06:00.764Z,3.90
2018-09-02T12:07:00.731Z,4.80
2018-09-02T12:08:00.720Z,2.90
2018-09-02T12:09:00.716Z,3.20
2018-09-02T12:10:00.696Z,3.70
2018-09-02T12:11:00.707Z,3.30
2018-09-02T12:12:00.676Z,3.40
2018-09-02T12:13:00.662Z,3.30
2018-09-02T12:14:00.687Z,3.10
2018-09-02T12:15:00.661Z,3.90
2018-09-02T12:16:00.630Z,3.30
2018-09-02T12:17:00.654Z,3.60
2018-09-02T12:18:00.605Z,3.80
2018-09-02T12:19:00.598Z,3.30
2018-09-02T12:20:00.583Z,4.20
2018-09-02T12:21:00.598Z,2.80
2018-09-02T12:22:00.562Z,2.70
2018-09-02T12:23:00.556Z,3.90
2018-09-02T12:24:00.541Z,3.40
2018-09-02T12:25:00.565Z,2.80
2018-09-02T12:26:00.515Z,4.00
2018-09-02T12:27:00.528Z,3.70
2018-09-02T12:28:00.496Z,4.20
2018-09-02T12:29:00.486Z,3.80
2018-09-02T12:30:00.471Z,5.20
2018-09-02T12:31:00.477Z,3.90
2018-09-02T12:32:00.490Z,3.10
2018-09-02T12:33:00.441Z,3.90
2018-09-02T12:34:00.434Z,3.20
2018-09-02T12:35:00.416Z,3.60
2018-09-02T12:36:00.403Z,4.10
2018-09-02T12:37:00.413Z,4.00
2018-09-02T12:38:00.386Z,3.60
2018-09-02T12:39:00.374Z,3.00
2018-09-02T12:40:00.359Z,3.10
2018-09-02T12:41:00.347Z,3.60
2018-09-02T12:42:00.358Z,3.40
2018-09-02T12:43:00.325Z,3.40
2018-09-02T12:44:00.342Z,5.10
2018-09-02T12:45:00.310Z,3.00
2018-09-02T12:46:00.291Z,4.10
2018-09-02T12:47:00.280Z,3.40
2018-09-02T12:48:00.435Z,3.70
2018-09-02T12:49:00.283Z,5.40
2018-09-02T12:50:00.250Z,3.70
2018-09-02T12:51:00.246Z,3.80
2018-09-02T12:52:00.283Z,3.50
2018-09-02T12:53:00.255Z,3.60
2018-09-02T12:54:00.202Z,3.50
2018-09-02T12:55:00.191Z,3.90
2018-09-02T12:56:00.179Z,2.90
2018-09-02T12:57:00.190Z,3.40
2018-09-02T12:58:00.178Z,3.60
2018-09-02T12:59:00.146Z,3.70
2018-09-02T13:00:00.135Z,3.20
2018-09-02T13:01:00.124Z,3.70
2018-09-02T13:02:00.113Z,3.80
2018-09-02T13:03:00.122Z,4.60
2018-09-02T13:04:00.090Z,3.60
2018-09-02T13:05:00.080Z,4.70
2018-09-02T13:06:00.068Z,3.30
2018-09-02T13:07:00.056Z,2.90
2018-09-02T13:08:00.075Z,4.00
2018-09-02T13:09:00.035Z,4.50
2018-09-02T13:10:00.022Z,3.70
2018-09-02T13:11:00.012Z,4.10
2018-09-02T13:12:00.010Z,4.20
2018-09-02T13:13:00.011Z,3.40
2018-09-02T13:14:00.019Z,3.30
2018-09-02T13:15:00.042Z,3.70
2018-09-02T13:15:59.957Z,3.30
2018-09-02T13:16:59.944Z,3.80
2018-09-02T13:17:59.957Z,3.70